sensor_id;sensor_type;location;lat;lon;timestamp;temperature;humidity
67502;SHT30;54349;52.528;19.760;2022-12-10T00:01:49;24.07;41.93
67502;SHT30;54349;52.528;19.760;2022-12-10T00:04:20;24.06;41.90
67502;SHT30;54349;52.528;19.760;2022-12-10T00:06:49;24.06;41.90
67502;SHT30;54349;52.528;19.760;2022-12-10T00:09:18;24.05;41.88
67502;SHT30;54349;52.528;19.760;2022-12-10T00:11:48;24.06;41.89
67502;SHT30;54349;52.528;19.760;2022-12-10T00:14:17;24.05;41.89
67502;SHT30;54349;52.528;19.760;2022-12-10T00:16:45;24.04;41.96
67502;SHT30;54349;52.528;19.760;2022-12-10T00:19:13;24.04;41.97
67502;SHT30;54349;52.528;19.760;2022-12-10T00:21:41;24.05;41.90
67502;SHT30;54349;52.528;19.760;2022-12-10T00:24:12;24.05;41.95
67502;SHT30;54349;52.528;19.760;2022-12-10T00:26:40;24.04;41.93
67502;SHT30;54349;52.528;19.760;2022-12-10T00:29:09;24.05;41.88
67502;SHT30;54349;52.528;19.760;2022-12-10T00:31:39;24.04;41.64
67502;SHT30;54349;52.528;19.760;2022-12-10T00:34:09;24.00;41.24
67502;SHT30;54349;52.528;19.760;2022-12-10T00:36:48;23.97;41.15
67502;SHT30;54349;52.528;19.760;2022-12-10T00:39:17;23.91;41.02
67502;SHT30;54349;52.528;19.760;2022-12-10T00:41:48;23.86;40.91
67502;SHT30;54349;52.528;19.760;2022-12-10T00:44:16;23.82;40.85
67502;SHT30;54349;52.528;19.760;2022-12-10T00:46:44;23.77;40.64
67502;SHT30;54349;52.528;19.760;2022-12-10T00:49:13;23.72;40.66
67502;SHT30;54349;52.528;19.760;2022-12-10T00:51:41;23.68;40.64
67502;SHT30;54349;52.528;19.760;2022-12-10T00:54:11;23.64;40.41
67502;SHT30;54349;52.528;19.760;2022-12-10T00:56:40;23.60;40.45
67502;SHT30;54349;52.528;19.760;2022-12-10T00:59:09;23.57;40.30
67502;SHT30;54349;52.528;19.760;2022-12-10T01:01:38;23.52;40.22
67502;SHT30;54349;52.528;19.760;2022-12-10T01:04:10;23.48;40.26
67502;SHT30;54349;52.528;19.760;2022-12-10T01:06:44;23.44;40.22
67502;SHT30;54349;52.528;19.760;2022-12-10T01:09:19;23.40;40.16
67502;SHT30;54349;52.528;19.760;2022-12-10T01:11:53;23.36;40.12
67502;SHT30;54349;52.528;19.760;2022-12-10T01:14:25;23.32;40.14
67502;SHT30;54349;52.528;19.760;2022-12-10T01:16:58;23.30;40.15
67502;SHT30;54349;52.528;19.760;2022-12-10T01:19:33;23.25;40.12
67502;SHT30;54349;52.528;19.760;2022-12-10T01:22:02;23.23;40.05
67502;SHT30;54349;52.528;19.760;2022-12-10T01:24:31;23.20;39.98
67502;SHT30;54349;52.528;19.760;2022-12-10T01:26:59;23.17;39.93
67502;SHT30;54349;52.528;19.760;2022-12-10T01:29:27;23.13;39.92
67502;SHT30;54349;52.528;19.760;2022-12-10T01:31:56;23.10;39.87
67502;SHT30;54349;52.528;19.760;2022-12-10T01:34:26;23.07;39.86
67502;SHT30;54349;52.528;19.760;2022-12-10T01:36:56;23.05;39.84
67502;SHT30;54349;52.528;19.760;2022-12-10T01:39:26;23.01;39.71
67502;SHT30;54349;52.528;19.760;2022-12-10T01:41:58;22.98;39.73
67502;SHT30;54349;52.528;19.760;2022-12-10T01:46:57;22.92;39.66
67502;SHT30;54349;52.528;19.760;2022-12-10T01:49:32;22.90;39.59
67502;SHT30;54349;52.528;19.760;2022-12-10T01:52:06;22.87;39.57
67502;SHT30;54349;52.528;19.760;2022-12-10T01:54:39;22.83;39.61
67502;SHT30;54349;52.528;19.760;2022-12-10T01:57:13;22.79;39.59
67502;SHT30;54349;52.528;19.760;2022-12-10T01:59:46;22.77;39.60
67502;SHT30;54349;52.528;19.760;2022-12-10T02:08:19;22.69;39.56
67502;SHT30;54349;52.528;19.760;2022-12-10T02:15:03;22.63;39.52
67502;SHT30;54349;52.528;19.760;2022-12-10T02:17:54;22.60;39.51
67502;SHT30;54349;52.528;19.760;2022-12-10T02:20:32;22.58;39.49
67502;SHT30;54349;52.528;19.760;2022-12-10T02:23:14;22.56;39.43
67502;SHT30;54349;52.528;19.760;2022-12-10T02:25:59;22.53;39.43
67502;SHT30;54349;52.528;19.760;2022-12-10T02:28:51;22.51;39.34
67502;SHT30;54349;52.528;19.760;2022-12-10T02:31:24;22.48;39.39
67502;SHT30;54349;52.528;19.760;2022-12-10T02:33:59;22.47;39.37
67502;SHT30;54349;52.528;19.760;2022-12-10T02:36:38;22.45;39.39
67502;SHT30;54349;52.528;19.760;2022-12-10T02:39:11;22.42;39.32
67502;SHT30;54349;52.528;19.760;2022-12-10T02:41:51;22.39;39.26
67502;SHT30;54349;52.528;19.760;2022-12-10T02:44:22;22.39;39.27
67502;SHT30;54349;52.528;19.760;2022-12-10T02:46:55;22.36;39.28
67502;SHT30;54349;52.528;19.760;2022-12-10T02:49:31;22.34;39.17
67502;SHT30;54349;52.528;19.760;2022-12-10T02:52:08;22.32;39.25
67502;SHT30;54349;52.528;19.760;2022-12-10T02:54:43;22.30;39.22
67502;SHT30;54349;52.528;19.760;2022-12-10T03:00:10;22.25;39.21
67502;SHT30;54349;52.528;19.760;2022-12-10T03:06:05;22.20;39.18
67502;SHT30;54349;52.528;19.760;2022-12-10T03:11:56;22.16;39.16
67502;SHT30;54349;52.528;19.760;2022-12-10T03:14:33;22.13;39.16
67502;SHT30;54349;52.528;19.760;2022-12-10T03:17:04;22.12;39.11
67502;SHT30;54349;52.528;19.760;2022-12-10T03:19:40;22.10;39.11
67502;SHT30;54349;52.528;19.760;2022-12-10T03:22:16;22.08;39.08
67502;SHT30;54349;52.528;19.760;2022-12-10T03:24:48;22.07;39.05
67502;SHT30;54349;52.528;19.760;2022-12-10T03:27:19;22.05;39.08
67502;SHT30;54349;52.528;19.760;2022-12-10T03:29:52;22.03;38.99
67502;SHT30;54349;52.528;19.760;2022-12-10T03:32:25;22.00;38.94
67502;SHT30;54349;52.528;19.760;2022-12-10T03:34:57;21.99;38.96
67502;SHT30;54349;52.528;19.760;2022-12-10T03:37:27;21.98;39.02
67502;SHT30;54349;52.528;19.760;2022-12-10T03:39:58;21.96;38.97
67502;SHT30;54349;52.528;19.760;2022-12-10T03:42:27;21.93;38.86
67502;SHT30;54349;52.528;19.760;2022-12-10T03:44:55;21.90;38.90
67502;SHT30;54349;52.528;19.760;2022-12-10T03:47:23;21.90;38.86
67502;SHT30;54349;52.528;19.760;2022-12-10T03:49:52;21.88;38.80
67502;SHT30;54349;52.528;19.760;2022-12-10T03:52:20;21.86;38.85
67502;SHT30;54349;52.528;19.760;2022-12-10T03:54:48;21.84;38.83
67502;SHT30;54349;52.528;19.760;2022-12-10T03:57:16;21.83;38.89
67502;SHT30;54349;52.528;19.760;2022-12-10T03:59:44;21.81;38.83
67502;SHT30;54349;52.528;19.760;2022-12-10T04:02:12;21.79;38.60
67502;SHT30;54349;52.528;19.760;2022-12-10T04:04:41;21.75;38.52
67502;SHT30;54349;52.528;19.760;2022-12-10T04:07:09;21.72;38.41
67502;SHT30;54349;52.528;19.760;2022-12-10T04:09:37;21.68;38.42
67502;SHT30;54349;52.528;19.760;2022-12-10T04:12:05;21.65;38.26
67502;SHT30;54349;52.528;19.760;2022-12-10T04:14:35;21.61;38.26
67502;SHT30;54349;52.528;19.760;2022-12-10T04:17:22;21.58;38.21
67502;SHT30;54349;52.528;19.760;2022-12-10T04:19:50;21.55;38.19
67502;SHT30;54349;52.528;19.760;2022-12-10T04:22:18;21.51;38.17
67502;SHT30;54349;52.528;19.760;2022-12-10T04:25:05;21.48;38.06
67502;SHT30;54349;52.528;19.760;2022-12-10T04:27:55;21.45;38.12
67502;SHT30;54349;52.528;19.760;2022-12-10T04:30:23;21.43;38.15
67502;SHT30;54349;52.528;19.760;2022-12-10T04:32:51;21.42;38.05
67502;SHT30;54349;52.528;19.760;2022-12-10T04:35:19;21.40;37.99
67502;SHT30;54349;52.528;19.760;2022-12-10T04:37:47;21.37;37.90
67502;SHT30;54349;52.528;19.760;2022-12-10T04:40:18;21.33;37.76
67502;SHT30;54349;52.528;19.760;2022-12-10T04:42:46;21.30;37.68
67502;SHT30;54349;52.528;19.760;2022-12-10T04:45:14;21.31;37.63
67502;SHT30;54349;52.528;19.760;2022-12-10T04:47:42;21.34;37.58
67502;SHT30;54349;52.528;19.760;2022-12-10T04:50:10;21.42;37.50
67502;SHT30;54349;52.528;19.760;2022-12-10T04:52:38;21.49;37.33
67502;SHT30;54349;52.528;19.760;2022-12-10T04:55:07;21.55;37.27
67502;SHT30;54349;52.528;19.760;2022-12-10T04:57:36;21.61;37.16
67502;SHT30;54349;52.528;19.760;2022-12-10T05:00:04;21.72;36.97
67502;SHT30;54349;52.528;19.760;2022-12-10T05:02:33;21.79;36.86
67502;SHT30;54349;52.528;19.760;2022-12-10T05:05:01;21.88;36.68
67502;SHT30;54349;52.528;19.760;2022-12-10T05:07:30;21.98;36.53
67502;SHT30;54349;52.528;19.760;2022-12-10T05:09:58;22.06;36.44
67502;SHT30;54349;52.528;19.760;2022-12-10T05:12:26;22.15;36.22
67502;SHT30;54349;52.528;19.760;2022-12-10T05:14:55;22.25;36.07
67502;SHT30;54349;52.528;19.760;2022-12-10T05:17:23;22.32;36.04
67502;SHT30;54349;52.528;19.760;2022-12-10T05:19:51;22.34;35.97
67502;SHT30;54349;52.528;19.760;2022-12-10T05:22:21;22.40;35.94
67502;SHT30;54349;52.528;19.760;2022-12-10T05:25:08;22.45;35.87
67502;SHT30;54349;52.528;19.760;2022-12-10T05:27:36;22.50;35.85
67502;SHT30;54349;52.528;19.760;2022-12-10T05:30:04;22.56;35.76
67502;SHT30;54349;52.528;19.760;2022-12-10T05:32:34;22.60;35.69
67502;SHT30;54349;52.528;19.760;2022-12-10T05:35:02;22.63;35.78
67502;SHT30;54349;52.528;19.760;2022-12-10T05:37:32;22.65;35.63
67502;SHT30;54349;52.528;19.760;2022-12-10T05:40:01;22.72;35.48
67502;SHT30;54349;52.528;19.760;2022-12-10T05:42:29;22.82;35.43
67502;SHT30;54349;52.528;19.760;2022-12-10T05:44:57;22.84;35.39
67502;SHT30;54349;52.528;19.760;2022-12-10T05:47:25;22.88;35.26
67502;SHT30;54349;52.528;19.760;2022-12-10T05:49:53;22.87;35.28
67502;SHT30;54349;52.528;19.760;2022-12-10T05:52:22;22.91;35.23
67502;SHT30;54349;52.528;19.760;2022-12-10T05:54:50;22.88;35.24
67502;SHT30;54349;52.528;19.760;2022-12-10T05:57:18;22.85;35.19
67502;SHT30;54349;52.528;19.760;2022-12-10T05:59:46;22.89;35.16
67502;SHT30;54349;52.528;19.760;2022-12-10T06:02:15;22.94;35.10
67502;SHT30;54349;52.528;19.760;2022-12-10T06:04:43;22.96;35.11
67502;SHT30;54349;52.528;19.760;2022-12-10T06:07:11;22.97;35.05
67502;SHT30;54349;52.528;19.760;2022-12-10T06:09:39;23.03;34.98
67502;SHT30;54349;52.528;19.760;2022-12-10T06:12:07;23.08;34.92
67502;SHT30;54349;52.528;19.760;2022-12-10T06:14:35;23.08;34.89
67502;SHT30;54349;52.528;19.760;2022-12-10T06:17:03;23.08;34.88
67502;SHT30;54349;52.528;19.760;2022-12-10T06:19:32;23.06;34.88
67502;SHT30;54349;52.528;19.760;2022-12-10T06:22:00;23.08;34.92
67502;SHT30;54349;52.528;19.760;2022-12-10T06:24:28;23.07;34.86
67502;SHT30;54349;52.528;19.760;2022-12-10T06:26:58;23.07;34.91
67502;SHT30;54349;52.528;19.760;2022-12-10T06:29:26;23.11;34.85
67502;SHT30;54349;52.528;19.760;2022-12-10T06:31:53;23.18;34.86
67502;SHT30;54349;52.528;19.760;2022-12-10T06:34:22;23.17;34.88
67502;SHT30;54349;52.528;19.760;2022-12-10T06:36:51;23.16;34.84
67502;SHT30;54349;52.528;19.760;2022-12-10T06:39:19;23.22;34.74
67502;SHT30;54349;52.528;19.760;2022-12-10T06:41:47;23.27;34.70
67502;SHT30;54349;52.528;19.760;2022-12-10T06:44:15;23.24;34.72
67502;SHT30;54349;52.528;19.760;2022-12-10T06:46:43;23.20;34.70
67502;SHT30;54349;52.528;19.760;2022-12-10T06:49:12;23.23;34.70
67502;SHT30;54349;52.528;19.760;2022-12-10T06:51:40;23.27;34.63
67502;SHT30;54349;52.528;19.760;2022-12-10T06:54:09;23.29;34.72
67502;SHT30;54349;52.528;19.760;2022-12-10T06:56:37;23.26;34.74
67502;SHT30;54349;52.528;19.760;2022-12-10T06:59:05;23.25;34.70
67502;SHT30;54349;52.528;19.760;2022-12-10T07:01:34;23.24;34.74
67502;SHT30;54349;52.528;19.760;2022-12-10T07:04:03;23.23;34.76
67502;SHT30;54349;52.528;19.760;2022-12-10T07:06:32;23.22;34.69
67502;SHT30;54349;52.528;19.760;2022-12-10T07:09:00;23.21;34.67
67502;SHT30;54349;52.528;19.760;2022-12-10T07:11:29;23.19;34.63
67502;SHT30;54349;52.528;19.760;2022-12-10T07:13:58;23.14;34.68
67502;SHT30;54349;52.528;19.760;2022-12-10T07:16:29;23.12;34.66
67502;SHT30;54349;52.528;19.760;2022-12-10T07:19:00;23.15;34.69
67502;SHT30;54349;52.528;19.760;2022-12-10T07:21:31;23.11;34.70
67502;SHT30;54349;52.528;19.760;2022-12-10T07:24:03;23.05;34.59
67502;SHT30;54349;52.528;19.760;2022-12-10T07:26:35;23.01;34.66
67502;SHT30;54349;52.528;19.760;2022-12-10T07:29:08;22.96;34.48
67502;SHT30;54349;52.528;19.760;2022-12-10T07:31:42;22.91;34.48
67502;SHT30;54349;52.528;19.760;2022-12-10T07:34:11;22.86;34.47
67502;SHT30;54349;52.528;19.760;2022-12-10T07:36:39;22.84;34.48
67502;SHT30;54349;52.528;19.760;2022-12-10T07:39:10;22.81;34.38
67502;SHT30;54349;52.528;19.760;2022-12-10T07:41:47;22.76;34.42
67502;SHT30;54349;52.528;19.760;2022-12-10T07:44:21;22.74;34.39
67502;SHT30;54349;52.528;19.760;2022-12-10T07:46:53;22.74;34.30
67502;SHT30;54349;52.528;19.760;2022-12-10T07:49:22;22.72;34.31
67502;SHT30;54349;52.528;19.760;2022-12-10T07:51:50;22.71;34.40
67502;SHT30;54349;52.528;19.760;2022-12-10T07:54:19;22.75;34.47
67502;SHT30;54349;52.528;19.760;2022-12-10T07:56:47;22.80;34.43
67502;SHT30;54349;52.528;19.760;2022-12-10T07:59:15;22.78;34.45
67502;SHT30;54349;52.528;19.760;2022-12-10T08:01:44;22.82;34.45
67502;SHT30;54349;52.528;19.760;2022-12-10T08:04:12;22.84;34.44
67502;SHT30;54349;52.528;19.760;2022-12-10T08:06:40;22.85;34.47
67502;SHT30;54349;52.528;19.760;2022-12-10T08:09:08;22.85;34.46
67502;SHT30;54349;52.528;19.760;2022-12-10T08:11:38;22.85;34.51
67502;SHT30;54349;52.528;19.760;2022-12-10T08:14:06;22.88;34.54
67502;SHT30;54349;52.528;19.760;2022-12-10T08:16:35;22.95;34.41
67502;SHT30;54349;52.528;19.760;2022-12-10T08:19:03;23.00;34.34
67502;SHT30;54349;52.528;19.760;2022-12-10T08:21:32;23.01;34.36
67502;SHT30;54349;52.528;19.760;2022-12-10T08:24:01;23.02;34.38
67502;SHT30;54349;52.528;19.760;2022-12-10T08:26:30;23.04;34.31
67502;SHT30;54349;52.528;19.760;2022-12-10T08:29:00;23.02;34.31
67502;SHT30;54349;52.528;19.760;2022-12-10T08:31:29;23.01;34.38
67502;SHT30;54349;52.528;19.760;2022-12-10T08:34:04;23.03;34.36
67502;SHT30;54349;52.528;19.760;2022-12-10T08:36:38;23.07;34.31
67502;SHT30;54349;52.528;19.760;2022-12-10T08:39:06;23.10;34.36
67502;SHT30;54349;52.528;19.760;2022-12-10T08:41:35;23.09;34.38
67502;SHT30;54349;52.528;19.760;2022-12-10T08:44:03;23.11;34.43
67502;SHT30;54349;52.528;19.760;2022-12-10T08:46:31;23.17;34.71
67502;SHT30;54349;52.528;19.760;2022-12-10T08:48:59;23.23;34.88
67502;SHT30;54349;52.528;19.760;2022-12-10T08:51:27;23.22;35.11
67502;SHT30;54349;52.528;19.760;2022-12-10T08:53:56;23.18;35.45
67502;SHT30;54349;52.528;19.760;2022-12-10T08:56:24;23.23;35.66
67502;SHT30;54349;52.528;19.760;2022-12-10T08:58:52;23.25;35.90
67502;SHT30;54349;52.528;19.760;2022-12-10T09:01:21;23.23;36.05
67502;SHT30;54349;52.528;19.760;2022-12-10T09:03:50;23.22;36.15
67502;SHT30;54349;52.528;19.760;2022-12-10T09:06:19;23.25;36.28
67502;SHT30;54349;52.528;19.760;2022-12-10T09:08:51;23.29;36.21
67502;SHT30;54349;52.528;19.760;2022-12-10T09:11:25;23.26;36.40
67502;SHT30;54349;52.528;19.760;2022-12-10T09:13:57;23.23;36.48
67502;SHT30;54349;52.528;19.760;2022-12-10T09:16:33;23.25;36.51
67502;SHT30;54349;52.528;19.760;2022-12-10T09:19:04;23.30;36.49
67502;SHT30;54349;52.528;19.760;2022-12-10T09:21:33;23.27;36.57
67502;SHT30;54349;52.528;19.760;2022-12-10T09:24:03;23.28;36.64
67502;SHT30;54349;52.528;19.760;2022-12-10T09:26:32;23.34;36.67
67502;SHT30;54349;52.528;19.760;2022-12-10T09:29:01;23.38;36.60
67502;SHT30;54349;52.528;19.760;2022-12-10T09:31:29;23.36;36.64
67502;SHT30;54349;52.528;19.760;2022-12-10T09:33:57;23.37;36.56
67502;SHT30;54349;52.528;19.760;2022-12-10T09:36:25;23.41;36.63
67502;SHT30;54349;52.528;19.760;2022-12-10T09:39:00;23.44;36.61
67502;SHT30;54349;52.528;19.760;2022-12-10T09:41:46;23.45;36.52
67502;SHT30;54349;52.528;19.760;2022-12-10T09:47:03;23.50;36.55
67502;SHT30;54349;52.528;19.760;2022-12-10T09:52:54;23.44;36.52
67502;SHT30;54349;52.528;19.760;2022-12-10T09:55:30;23.46;36.67
67502;SHT30;54349;52.528;19.760;2022-12-10T09:58:06;23.49;36.68
67502;SHT30;54349;52.528;19.760;2022-12-10T10:03:28;23.47;36.64
67502;SHT30;54349;52.528;19.760;2022-12-10T10:06:05;23.48;36.68
67502;SHT30;54349;52.528;19.760;2022-12-10T10:08:40;23.49;36.59
67502;SHT30;54349;52.528;19.760;2022-12-10T10:11:17;23.50;36.62
67502;SHT30;54349;52.528;19.760;2022-12-10T10:13:56;23.51;36.74
67502;SHT30;54349;52.528;19.760;2022-12-10T10:16:32;23.51;36.64
67502;SHT30;54349;52.528;19.760;2022-12-10T10:19:17;23.48;36.71
67502;SHT30;54349;52.528;19.760;2022-12-10T10:21:55;23.48;36.84
67502;SHT30;54349;52.528;19.760;2022-12-10T10:24:30;23.49;36.85
67502;SHT30;54349;52.528;19.760;2022-12-10T10:27:15;23.52;36.71
67502;SHT30;54349;52.528;19.760;2022-12-10T10:29:52;23.53;36.71
67502;SHT30;54349;52.528;19.760;2022-12-10T10:40:52;23.56;36.69
67502;SHT30;54349;52.528;19.760;2022-12-10T10:43:28;23.58;36.72
67502;SHT30;54349;52.528;19.760;2022-12-10T10:46:01;23.58;36.56
67502;SHT30;54349;52.528;19.760;2022-12-10T10:48:51;23.58;36.56
67502;SHT30;54349;52.528;19.760;2022-12-10T10:51:20;23.59;36.76
67502;SHT30;54349;52.528;19.760;2022-12-10T10:53:54;23.60;37.02
67502;SHT30;54349;52.528;19.760;2022-12-10T10:56:27;23.60;37.51
67502;SHT30;54349;52.528;19.760;2022-12-10T10:59:07;23.61;37.88
67502;SHT30;54349;52.528;19.760;2022-12-10T11:02:43;23.62;38.09
67502;SHT30;54349;52.528;19.760;2022-12-10T11:05:06;23.62;38.08
67502;SHT30;54349;52.528;19.760;2022-12-10T11:08:03;23.61;38.24
67502;SHT30;54349;52.528;19.760;2022-12-10T11:10:51;23.59;38.25
67502;SHT30;54349;52.528;19.760;2022-12-10T11:13:33;23.59;38.33
67502;SHT30;54349;52.528;19.760;2022-12-10T11:16:11;23.60;38.42
67502;SHT30;54349;52.528;19.760;2022-12-10T11:18:42;23.59;38.44
67502;SHT30;54349;52.528;19.760;2022-12-10T11:21:23;23.60;38.45
67502;SHT30;54349;52.528;19.760;2022-12-10T11:23:51;23.60;38.39
67502;SHT30;54349;52.528;19.760;2022-12-10T11:29:26;23.62;38.42
67502;SHT30;54349;52.528;19.760;2022-12-10T11:51:11;23.61;37.97
67502;SHT30;54349;52.528;19.760;2022-12-10T11:53:50;23.60;37.87
67502;SHT30;54349;52.528;19.760;2022-12-10T11:59:15;23.62;37.68
67502;SHT30;54349;52.528;19.760;2022-12-10T12:02:25;23.62;37.42
67502;SHT30;54349;52.528;19.760;2022-12-10T12:08:42;23.59;37.25
67502;SHT30;54349;52.528;19.760;2022-12-10T12:14:27;23.53;37.00
67502;SHT30;54349;52.528;19.760;2022-12-10T12:20:02;23.49;36.80
67502;SHT30;54349;52.528;19.760;2022-12-10T12:22:42;23.44;36.65
67502;SHT30;54349;52.528;19.760;2022-12-10T12:25:33;23.41;36.63
67502;SHT30;54349;52.528;19.760;2022-12-10T12:28:11;23.38;36.68
67502;SHT30;54349;52.528;19.760;2022-12-10T12:30:47;23.36;36.50
67502;SHT30;54349;52.528;19.760;2022-12-10T12:33:28;23.31;36.31
67502;SHT30;54349;52.528;19.760;2022-12-10T12:36:26;23.26;36.35
67502;SHT30;54349;52.528;19.760;2022-12-10T12:42:28;23.22;36.25
67502;SHT30;54349;52.528;19.760;2022-12-10T12:45:14;23.20;36.29
67502;SHT30;54349;52.528;19.760;2022-12-10T12:47:55;23.19;36.28
67502;SHT30;54349;52.528;19.760;2022-12-10T12:53:37;23.16;36.23
67502;SHT30;54349;52.528;19.760;2022-12-10T13:05:23;23.18;36.10
67502;SHT30;54349;52.528;19.760;2022-12-10T13:32:53;23.39;35.84
67502;SHT30;54349;52.528;19.760;2022-12-10T13:35:44;23.37;35.74
67502;SHT30;54349;52.528;19.760;2022-12-10T13:38:25;23.36;35.86
67502;SHT30;54349;52.528;19.760;2022-12-10T13:40:57;23.37;36.17
67502;SHT30;54349;52.528;19.760;2022-12-10T13:43:59;23.39;37.05
67502;SHT30;54349;52.528;19.760;2022-12-10T13:46:52;23.41;37.54
67502;SHT30;54349;52.528;19.760;2022-12-10T13:49:24;23.37;37.62
67502;SHT30;54349;52.528;19.760;2022-12-10T13:52:00;23.33;37.66
67502;SHT30;54349;52.528;19.760;2022-12-10T13:54:42;23.30;37.36
67502;SHT30;54349;52.528;19.760;2022-12-10T13:58:17;23.25;37.12
67502;SHT30;54349;52.528;19.760;2022-12-10T14:06:32;23.15;36.91
67502;SHT30;54349;52.528;19.760;2022-12-10T14:09:10;23.14;36.86
67502;SHT30;54349;52.528;19.760;2022-12-10T14:11:57;23.11;36.73
67502;SHT30;54349;52.528;19.760;2022-12-10T14:17:09;23.09;36.58
67502;SHT30;54349;52.528;19.760;2022-12-10T14:19:43;23.08;36.48
67502;SHT30;54349;52.528;19.760;2022-12-10T14:22:21;23.07;36.19
67502;SHT30;54349;52.528;19.760;2022-12-10T14:25:19;23.07;36.10
67502;SHT30;54349;52.528;19.760;2022-12-10T14:27:51;23.07;36.07
67502;SHT30;54349;52.528;19.760;2022-12-10T14:32:54;23.07;35.96
67502;SHT30;54349;52.528;19.760;2022-12-10T14:35:27;23.10;36.01
67502;SHT30;54349;52.528;19.760;2022-12-10T14:37:57;23.13;35.79
67502;SHT30;54349;52.528;19.760;2022-12-10T14:40:39;23.12;35.74
67502;SHT30;54349;52.528;19.760;2022-12-10T14:43:12;23.16;35.76
67502;SHT30;54349;52.528;19.760;2022-12-10T14:46:00;23.19;35.70
67502;SHT30;54349;52.528;19.760;2022-12-10T14:48:38;23.22;35.53
67502;SHT30;54349;52.528;19.760;2022-12-10T14:51:14;23.24;35.55
67502;SHT30;54349;52.528;19.760;2022-12-10T14:53:49;23.26;35.53
67502;SHT30;54349;52.528;19.760;2022-12-10T14:56:22;23.28;35.48
67502;SHT30;54349;52.528;19.760;2022-12-10T14:59:08;23.32;35.38
67502;SHT30;54349;52.528;19.760;2022-12-10T15:01:45;23.32;35.27
67502;SHT30;54349;52.528;19.760;2022-12-10T15:04:19;23.33;35.23
67502;SHT30;54349;52.528;19.760;2022-12-10T15:06:56;23.33;35.17
67502;SHT30;54349;52.528;19.760;2022-12-10T15:09:28;23.35;35.13
67502;SHT30;54349;52.528;19.760;2022-12-10T15:11:56;23.34;35.15
67502;SHT30;54349;52.528;19.760;2022-12-10T15:14:27;23.35;35.17
67502;SHT30;54349;52.528;19.760;2022-12-10T15:16:58;23.36;35.09
67502;SHT30;54349;52.528;19.760;2022-12-10T15:19:33;23.34;35.00
67502;SHT30;54349;52.528;19.760;2022-12-10T15:22:19;23.33;35.00
67502;SHT30;54349;52.528;19.760;2022-12-10T15:24:49;23.32;34.95
67502;SHT30;54349;52.528;19.760;2022-12-10T15:27:19;23.31;34.93
67502;SHT30;54349;52.528;19.760;2022-12-10T15:29:51;23.29;34.97
67502;SHT30;54349;52.528;19.760;2022-12-10T15:32:26;23.28;34.92
67502;SHT30;54349;52.528;19.760;2022-12-10T15:34:57;23.28;34.98
67502;SHT30;54349;52.528;19.760;2022-12-10T15:37:33;23.29;34.90
67502;SHT30;54349;52.528;19.760;2022-12-10T15:40:19;23.28;34.90
67502;SHT30;54349;52.528;19.760;2022-12-10T15:42:50;23.26;34.96
67502;SHT30;54349;52.528;19.760;2022-12-10T15:45:21;23.25;34.87
67502;SHT30;54349;52.528;19.760;2022-12-10T15:47:57;23.21;34.49
67502;SHT30;54349;52.528;19.760;2022-12-10T15:50:28;23.13;34.53
67502;SHT30;54349;52.528;19.760;2022-12-10T15:52:57;23.08;34.46
67502;SHT30;54349;52.528;19.760;2022-12-10T15:55:25;23.06;34.36
67502;SHT30;54349;52.528;19.760;2022-12-10T15:57:54;23.00;34.22
67502;SHT30;54349;52.528;19.760;2022-12-10T16:00:24;22.94;34.30
67502;SHT30;54349;52.528;19.760;2022-12-10T16:02:58;22.94;34.25
67502;SHT30;54349;52.528;19.760;2022-12-10T16:05:32;22.91;34.20
67502;SHT30;54349;52.528;19.760;2022-12-10T16:08:09;22.89;34.21
67502;SHT30;54349;52.528;19.760;2022-12-10T16:11:00;22.88;34.20
67502;SHT30;54349;52.528;19.760;2022-12-10T16:13:40;22.87;34.08
67502;SHT30;54349;52.528;19.760;2022-12-10T16:16:17;22.85;34.00
67502;SHT30;54349;52.528;19.760;2022-12-10T16:18:46;22.81;33.95
67502;SHT30;54349;52.528;19.760;2022-12-10T16:21:15;22.79;33.99
67502;SHT30;54349;52.528;19.760;2022-12-10T16:23:43;22.78;34.02
67502;SHT30;54349;52.528;19.760;2022-12-10T16:26:15;22.76;33.86
67502;SHT30;54349;52.528;19.760;2022-12-10T16:28:48;22.73;33.81
67502;SHT30;54349;52.528;19.760;2022-12-10T16:31:19;22.68;33.81
67502;SHT30;54349;52.528;19.760;2022-12-10T16:33:49;22.66;33.81
67502;SHT30;54349;52.528;19.760;2022-12-10T16:36:19;22.65;33.73
67502;SHT30;54349;52.528;19.760;2022-12-10T16:38:47;22.64;33.77
67502;SHT30;54349;52.528;19.760;2022-12-10T16:41:16;22.63;33.78
67502;SHT30;54349;52.528;19.760;2022-12-10T16:43:56;22.63;33.73
67502;SHT30;54349;52.528;19.760;2022-12-10T16:46:24;22.62;33.68
67502;SHT30;54349;52.528;19.760;2022-12-10T16:48:52;22.63;33.73
67502;SHT30;54349;52.528;19.760;2022-12-10T16:51:21;22.64;33.74
67502;SHT30;54349;52.528;19.760;2022-12-10T16:53:56;22.67;33.63
67502;SHT30;54349;52.528;19.760;2022-12-10T16:56:25;22.66;33.56
67502;SHT30;54349;52.528;19.760;2022-12-10T16:58:53;22.64;33.59
67502;SHT30;54349;52.528;19.760;2022-12-10T17:01:25;22.64;33.58
67502;SHT30;54349;52.528;19.760;2022-12-10T17:03:55;22.65;33.52
67502;SHT30;54349;52.528;19.760;2022-12-10T17:06:26;22.65;33.49
67502;SHT30;54349;52.528;19.760;2022-12-10T17:08:56;22.64;33.50
67502;SHT30;54349;52.528;19.760;2022-12-10T17:11:25;22.66;33.56
67502;SHT30;54349;52.528;19.760;2022-12-10T17:14:20;22.67;33.52
67502;SHT30;54349;52.528;19.760;2022-12-10T17:16:51;22.68;33.51
67502;SHT30;54349;52.528;19.760;2022-12-10T17:19:23;22.69;33.41
67502;SHT30;54349;52.528;19.760;2022-12-10T17:21:56;22.69;33.56
67502;SHT30;54349;52.528;19.760;2022-12-10T17:24:24;22.75;33.58
67502;SHT30;54349;52.528;19.760;2022-12-10T17:26:52;22.80;33.71
67502;SHT30;54349;52.528;19.760;2022-12-10T17:29:28;22.85;33.73
67502;SHT30;54349;52.528;19.760;2022-12-10T17:32:03;22.91;33.91
67502;SHT30;54349;52.528;19.760;2022-12-10T17:34:33;22.98;34.20
67502;SHT30;54349;52.528;19.760;2022-12-10T17:37:06;23.05;34.43
67502;SHT30;54349;52.528;19.760;2022-12-10T17:39:42;23.10;34.57
67502;SHT30;54349;52.528;19.760;2022-12-10T17:42:10;23.14;34.34
67502;SHT30;54349;52.528;19.760;2022-12-10T17:44:38;23.14;34.23
67502;SHT30;54349;52.528;19.760;2022-12-10T17:47:19;23.14;34.17
67502;SHT30;54349;52.528;19.760;2022-12-10T17:49:51;23.15;34.27
67502;SHT30;54349;52.528;19.760;2022-12-10T17:52:20;23.18;34.57
67502;SHT30;54349;52.528;19.760;2022-12-10T17:54:48;23.21;34.82
67502;SHT30;54349;52.528;19.760;2022-12-10T17:57:20;23.25;35.05